Time;durP1;ratioP1;P1;durP2;ratioP2;P2;SDS_P1;SDS_P2;PMS_P1;PMS_P2;Temp;Humidity;BMP_temperature;BMP_pressure;BME280_temperature;BME280_humidity;BME280_pressure;Samples;Min_cycle;Max_cycle;Signal;HPM_P1;HPM_P2
2022/06/16 00:02:21;;;;;;;5.63;2.50;;;15.00;99.90;;;;;;5093740;28;20126;-76
2022/06/16 00:04:47;;;;;;;6.37;2.83;;;15.00;99.90;;;;;;5076108;28;20392;-76
2022/06/16 00:07:16;;;;;;;7.85;2.65;;;14.90;99.90;;;;;;5076476;28;20273;-75
2022/06/16 00:09:42;;;;;;;7.15;2.60;;;14.90;99.90;;;;;;5092195;28;20236;-76
2022/06/16 00:12:08;;;;;;;5.22;2.53;;;14.90;99.90;;;;;;5093174;28;20114;-76
2022/06/16 00:14:34;;;;;;;4.40;2.47;;;14.90;99.90;;;;;;5093380;28;20506;-76
2022/06/16 00:16:59;;;;;;;4.80;2.40;;;14.90;99.90;;;;;;5076070;28;20047;-76
2022/06/16 00:19:25;;;;;;;6.53;2.50;;;15.00;99.90;;;;;;5093240;28;20559;-76
2022/06/16 00:21:51;;;;;;;4.68;2.22;;;15.00;99.90;;;;;;5092680;28;20063;-76
2022/06/16 00:24:16;;;;;;;5.75;2.40;;;15.00;99.90;;;;;;5075629;28;20044;-76
2022/06/16 00:26:42;;;;;;;5.78;2.60;;;15.00;99.90;;;;;;5092814;28;20376;-76
2022/06/16 00:29:08;;;;;;;4.47;2.38;;;14.90;99.90;;;;;;5092932;28;20377;-75
2022/06/16 00:31:34;;;;;;;4.93;2.40;;;14.90;99.90;;;;;;5092908;28;20040;-77
2022/06/16 00:34:00;;;;;;;5.93;2.10;;;14.90;99.90;;;;;;5075464;28;20100;-77
2022/06/16 00:36:26;;;;;;;3.63;2.00;;;14.90;99.90;;;;;;5092711;28;20043;-77
2022/06/16 00:38:51;;;;;;;6.55;2.40;;;14.90;99.90;;;;;;5075370;28;20122;-76
2022/06/16 00:41:17;;;;;;;6.28;2.17;;;14.90;99.90;;;;;;5092618;28;20066;-76
2022/06/16 00:43:43;;;;;;;5.22;2.15;;;14.90;99.90;;;;;;5092420;28;20819;-76
2022/06/16 00:46:13;;;;;;;4.65;2.10;;;14.90;99.90;;;;;;5092394;28;20042;-77
2022/06/16 00:48:47;;;;;;;8.25;2.58;;;14.90;99.90;;;;;;5092425;28;20046;-76
2022/06/16 00:51:19;;;;;;;4.82;2.20;;;14.90;99.90;;;;;;5092394;28;20039;-76
2022/06/16 00:53:46;;;;;;;6.15;2.17;;;14.80;99.90;;;;;;5092184;28;20040;-77
2022/06/16 00:56:15;;;;;;;;;;;14.80;99.90;;;;;;5092881;28;20077;-76
2022/06/16 00:58:45;;;;;;;4.43;2.10;;;14.80;99.90;;;;;;5092876;28;20313;-76
2022/06/16 01:01:11;;;;;;;3.42;1.90;;;14.80;99.90;;;;;;5110402;28;20502;-76
2022/06/16 01:06:29;;;;;;;5.32;2.20;;;14.70;99.90;;;;;;5077961;28;20070;-75
2022/06/16 01:09:03;;;;;;;4.10;2.03;;;14.70;99.90;;;;;;5092141;28;20040;-76
2022/06/16 01:15:06;;;;;;;5.15;2.50;;;14.60;99.90;;;;;;5091695;28;20039;-76
2022/06/16 01:18:07;;;;;;;5.30;2.33;;;14.60;99.90;;;;;;5092263;28;20463;-76
2022/06/16 01:20:49;;;;;;;4.80;2.60;;;14.60;99.90;;;;;;5091848;28;20135;-76
2022/06/16 01:23:34;;;;;;;6.38;2.53;;;14.50;99.90;;;;;;5097254;28;20032;-77
2022/06/16 01:26:16;;;;;;;5.82;2.50;;;14.60;99.90;;;;;;5091543;28;20055;-76
2022/06/16 01:29:08;;;;;;;6.15;2.58;;;14.60;99.90;;;;;;5091929;28;20092;-76
2022/06/16 01:32:02;;;;;;;4.75;2.38;;;14.60;99.90;;;;;;5092081;28;20083;-75
2022/06/16 01:34:45;;;;;;;4.03;2.60;;;14.50;99.90;;;;;;5092079;28;20524;-76
2022/06/16 01:37:14;;;;;;;6.10;2.75;;;14.50;99.90;;;;;;5091765;28;20379;-76
2022/06/16 01:40:02;;;;;;;5.20;2.60;;;14.50;99.90;;;;;;5092077;28;20040;-76
2022/06/16 01:42:44;;;;;;;;;;;14.40;99.90;;;;;;5092181;28;20137;-76
2022/06/16 01:45:25;;;;;;;6.40;2.70;;;14.50;99.90;;;;;;5109634;28;19924;-76
2022/06/16 01:47:51;;;;;;;7.35;3.00;;;14.50;99.90;;;;;;5073731;28;20063;-76
2022/06/16 01:50:22;;;;;;;;;;;14.50;99.90;;;;;;5091537;28;20039;-77
2022/06/16 01:52:57;;;;;;;6.57;2.50;;;14.50;99.90;;;;;;5074912;28;20309;-76
2022/06/16 01:55:29;;;;;;;6.07;2.97;;;14.50;99.90;;;;;;5091766;28;20479;-77
2022/06/16 01:58:06;;;;;;;4.75;2.85;;;14.50;99.90;;;;;;5091193;28;20045;-76
2022/06/16 02:00:33;;;;;;;5.00;2.63;;;14.50;99.90;;;;;;5091930;28;20496;-77
2022/06/16 02:03:05;;;;;;;5.43;2.85;;;14.50;99.90;;;;;;5091584;28;20399;-77
2022/06/16 02:05:49;;;;;;;8.07;3.00;;;14.50;99.90;;;;;;5091309;28;20043;-76
2022/06/16 02:08:24;;;;;;;6.72;2.83;;;14.60;99.90;;;;;;5091743;28;20526;-76
2022/06/16 02:10:54;;;;;;;6.00;2.80;;;14.50;99.90;;;;;;5075166;28;20407;-77
2022/06/16 02:13:26;;;;;;;5.35;2.63;;;14.50;99.90;;;;;;5091833;28;20489;-76
2022/06/16 02:16:00;;;;;;;6.28;3.40;;;14.50;99.90;;;;;;5092785;28;20128;-76
2022/06/16 02:18:30;;;;;;;5.68;2.92;;;14.50;99.90;;;;;;5091379;28;20044;-75
2022/06/16 02:21:01;;;;;;;7.43;3.03;;;14.60;99.90;;;;;;5089385;28;20035;-76
2022/06/16 02:23:28;;;;;;;5.50;2.90;;;14.60;99.90;;;;;;5091386;28;20115;-76
2022/06/16 02:25:58;;;;;;;6.05;3.05;;;14.50;99.90;;;;;;5090616;28;20043;-77
2022/06/16 02:28:25;;;;;;;10.15;3.85;;;14.50;99.90;;;;;;5091872;28;20043;-77
2022/06/16 02:31:17;;;;;;;7.68;3.03;;;14.50;99.90;;;;;;5074780;28;20039;-77
2022/06/16 02:33:52;;;;;;;7.82;3.50;;;14.40;99.90;;;;;;5095233;28;20043;-75
2022/06/16 02:36:38;;;;;;;5.75;3.22;;;14.40;99.90;;;;;;5094473;28;20059;-76
2022/06/16 02:39:34;;;;;;;7.65;3.28;;;14.40;99.90;;;;;;5095064;28;20130;-76
2022/06/16 02:42:18;;;;;;;6.65;3.45;;;14.30;99.90;;;;;;5094642;28;20077;-77
2022/06/16 02:44:58;;;;;;;6.13;3.33;;;14.30;99.90;;;;;;5077940;28;20040;-77
2022/06/16 02:47:44;;;;;;;6.35;3.80;;;14.30;99.90;;;;;;5094894;28;20031;-76
2022/06/16 02:50:17;;;;;;;5.60;3.60;;;14.30;99.90;;;;;;5094428;28;20658;-76
2022/06/16 02:52:51;;;;;;;6.78;3.70;;;14.30;99.90;;;;;;5094998;28;20110;-77
2022/06/16 02:55:26;;;;;;;8.07;3.67;;;14.30;99.90;;;;;;5094383;28;20082;-76
2022/06/16 02:57:56;;;;;;;9.90;4.10;;;14.30;99.90;;;;;;5094967;28;20419;-76
2022/06/16 03:00:35;;;;;;;5.80;3.33;;;14.30;99.90;;;;;;5094589;28;20047;-76
2022/06/16 03:03:21;;;;;;;8.27;3.63;;;14.30;99.90;;;;;;5094285;28;20051;-76
2022/06/16 03:05:52;;;;;;;6.22;3.85;;;14.20;99.90;;;;;;5092740;28;20480;-76
2022/06/16 03:08:19;;;;;;;8.68;4.65;;;14.20;99.90;;;;;;5094225;28;20058;-77
2022/06/16 03:10:51;;;;;;;6.47;4.40;;;14.10;99.90;;;;;;5077372;28;20043;-76
2022/06/16 03:13:22;;;;;;;9.35;4.60;;;14.10;99.90;;;;;;5077763;28;20044;-77
2022/06/16 03:15:50;;;;;;;8.65;3.67;;;14.10;99.90;;;;;;5077348;28;20101;-76
2022/06/16 03:18:16;;;;;;;8.13;4.05;;;14.10;99.90;;;;;;5094018;28;20040;-76
2022/06/16 03:20:42;;;;;;;5.85;3.60;;;14.10;99.90;;;;;;5094152;28;20467;-76
2022/06/16 03:23:08;;;;;;;6.70;4.13;;;14.00;99.90;;;;;;5076951;28;20046;-77
2022/06/16 03:25:34;;;;;;;7.97;4.22;;;14.10;99.90;;;;;;5060114;28;20442;-76
2022/06/16 03:28:00;;;;;;;7.30;3.97;;;14.10;99.90;;;;;;5076795;28;20035;-76
2022/06/16 03:30:26;;;;;;;6.80;3.95;;;14.10;99.90;;;;;;5094091;28;20123;-76
2022/06/16 03:32:52;;;;;;;6.05;3.70;;;14.10;99.90;;;;;;5093924;28;20391;-77
2022/06/16 03:35:17;;;;;;;7.70;4.03;;;14.00;99.90;;;;;;5076801;28;20548;-76
2022/06/16 03:37:43;;;;;;;6.82;4.05;;;13.90;99.90;;;;;;5093726;28;20282;-77
2022/06/16 03:40:13;;;;;;;5.53;3.80;;;13.70;99.90;;;;;;5093455;28;20047;-76
2022/06/16 03:42:39;;;;;;;7.43;4.10;;;13.60;99.90;;;;;;5094056;28;20491;-76
2022/06/16 03:45:06;;;;;;;7.13;4.63;;;13.60;99.90;;;;;;5093135;28;20056;-76
2022/06/16 03:47:32;;;;;;;6.07;4.03;;;13.60;99.90;;;;;;5093651;28;20036;-77
2022/06/16 03:49:57;;;;;;;6.10;4.47;;;13.50;99.90;;;;;;5093655;28;20429;-77
2022/06/16 03:52:23;;;;;;;6.93;4.57;;;13.60;99.90;;;;;;5093687;28;20118;-77
2022/06/16 03:54:49;;;;;;;7.00;4.03;;;13.60;99.90;;;;;;5093586;28;20090;-76
2022/06/16 03:57:15;;;;;;;7.22;4.38;;;13.60;99.90;;;;;;5076530;28;20051;-77
2022/06/16 03:59:41;;;;;;;6.28;4.30;;;13.60;99.90;;;;;;5076843;28;20122;-76
2022/06/16 04:02:07;;;;;;;8.35;4.22;;;13.60;99.90;;;;;;5092918;28;20118;-77
2022/06/16 04:04:33;;;;;;;8.90;3.90;;;13.60;99.90;;;;;;5093274;28;20040;-76
2022/06/16 04:06:59;;;;;;;6.25;3.80;;;13.70;99.90;;;;;;5093466;28;20043;-76
2022/06/16 04:09:24;;;;;;;8.32;4.18;;;13.70;99.90;;;;;;5096338;28;20050;-76
2022/06/16 04:11:50;;;;;;;8.10;4.18;;;13.80;99.90;;;;;;5095095;28;20036;-77
2022/06/16 04:14:16;;;;;;;10.43;4.20;;;13.80;99.90;;;;;;5093031;28;20543;-77
2022/06/16 04:16:45;;;;;;;7.68;3.95;;;13.80;99.90;;;;;;5092328;28;20286;-77
2022/06/16 04:19:13;;;;;;;7.28;3.70;;;13.90;99.90;;;;;;5091984;28;20067;-76
2022/06/16 04:21:40;;;;;;;5.55;3.38;;;14.00;99.90;;;;;;5075251;28;20100;-77
2022/06/16 04:24:06;;;;;;;6.32;3.70;;;14.00;99.90;;;;;;5091814;28;20576;-76
2022/06/16 04:26:37;;;;;;;5.10;3.88;;;14.00;99.90;;;;;;5092021;28;20047;-77
2022/06/16 04:29:04;;;;;;;8.02;3.60;;;14.10;99.90;;;;;;5092090;28;20046;-76
2022/06/16 04:31:30;;;;;;;5.88;4.25;;;14.10;99.90;;;;;;5092841;28;20043;-79
2022/06/16 04:33:56;;;;;;;5.97;3.33;;;14.20;99.90;;;;;;5093064;28;20046;-78
2022/06/16 04:36:22;;;;;;;8.07;4.07;;;14.30;99.90;;;;;;5092845;28;20468;-77
2022/06/16 04:38:48;;;;;;;7.10;4.40;;;14.30;99.90;;;;;;5092788;28;20085;-77
2022/06/16 04:41:15;;;;;;;7.30;3.47;;;14.40;99.90;;;;;;5092615;28;20502;-76
2022/06/16 04:43:41;;;;;;;6.05;3.25;;;14.50;99.90;;;;;;5092623;28;20088;-77
2022/06/16 04:46:08;;;;;;;13.00;3.70;;;14.60;99.90;;;;;;5095347;28;20040;-78
2022/06/16 04:48:34;;;;;;;;;;;14.60;99.90;;;;;;5076151;28;20044;-77
2022/06/16 04:51:01;;;;;;;8.48;3.35;;;14.70;99.90;;;;;;5076042;28;20010;-78
2022/06/16 04:53:27;;;;;;;4.68;2.95;;;14.80;99.90;;;;;;5092586;28;20043;-78
2022/06/16 04:55:57;;;;;;;6.55;3.53;;;14.90;99.90;;;;;;5098324;28;20510;-78
2022/06/16 04:58:24;;;;;;;6.47;3.47;;;15.00;99.90;;;;;;5098637;28;20395;-78
2022/06/16 05:00:51;;;;;;;5.40;2.80;;;15.00;99.90;;;;;;5093196;28;20078;-78
2022/06/16 05:03:18;;;;;;;5.95;2.60;;;15.20;99.90;;;;;;5092830;28;20446;-78
2022/06/16 05:05:49;;;;;;;5.63;2.88;;;15.30;99.90;;;;;;5092743;28;20349;-78
2022/06/16 05:08:17;;;;;;;4.78;3.00;;;15.50;99.90;;;;;;5092914;28;20092;-80
2022/06/16 05:10:44;;;;;;;5.63;2.25;;;15.60;99.90;;;;;;5081701;28;20047;-77
2022/06/16 05:13:10;;;;;;;5.50;2.58;;;15.70;99.90;;;;;;5092851;28;20472;-77
2022/06/16 05:15:36;;;;;;;5.72;3.17;;;15.80;99.90;;;;;;5092660;28;20039;-79
2022/06/16 05:18:03;;;;;;;4.72;3.30;;;15.90;99.90;;;;;;5076266;28;20099;-78
2022/06/16 05:20:28;;;;;;;6.97;3.17;;;15.90;99.90;;;;;;5091160;28;20051;-76
2022/06/16 05:22:54;;;;;;;8.35;3.28;;;16.00;99.90;;;;;;5096346;28;20035;-78
2022/06/16 05:25:20;;;;;;;7.68;3.10;;;16.10;99.90;;;;;;5075377;28;20082;-79
2022/06/16 05:27:46;;;;;;;7.47;3.20;;;16.20;99.90;;;;;;5092401;28;20110;-78
2022/06/16 05:30:12;;;;;;;6.13;3.05;;;16.30;99.90;;;;;;5092702;28;20035;-78
2022/06/16 05:32:38;;;;;;;;;;;16.30;99.90;;;;;;5111197;28;20027;-78
2022/06/16 05:35:04;;;;;;;5.70;2.85;;;16.30;99.90;;;;;;5076140;28;19941;-76
2022/06/16 05:37:31;;;;;;;6.20;3.20;;;16.40;99.90;;;;;;5092283;28;20036;-79
2022/06/16 05:39:57;;;;;;;5.82;3.35;;;16.50;99.90;;;;;;5093147;28;20042;-79
2022/06/16 05:42:23;;;;;;;4.90;3.08;;;16.60;99.90;;;;;;5092671;28;20051;-78
2022/06/16 05:44:48;;;;;;;7.28;3.17;;;16.50;99.90;;;;;;5092437;28;20044;-78
2022/06/16 05:47:14;;;;;;;8.27;4.03;;;16.60;99.90;;;;;;5076049;28;20044;-78
2022/06/16 05:49:42;;;;;;;9.68;4.13;;;16.70;99.90;;;;;;5092661;28;20040;-78
2022/06/16 05:52:18;;;;;;;7.38;3.60;;;16.90;99.90;;;;;;5092507;28;20113;-78
2022/06/16 05:54:44;;;;;;;6.85;3.65;;;17.00;99.90;;;;;;5092667;28;20044;-79
2022/06/16 05:57:11;;;;;;;7.95;3.70;;;17.20;99.90;;;;;;5092437;28;20066;-78
2022/06/16 05:59:37;;;;;;;;;;;17.30;99.90;;;;;;5093078;28;20089;-79
2022/06/16 06:02:05;;;;;;;10.30;3.60;;;17.50;99.90;;;;;;5092808;28;19919;-78
2022/06/16 06:04:32;;;;;;;5.63;3.33;;;17.60;99.90;;;;;;5092340;28;20063;-78
2022/06/16 06:06:59;;;;;;;5.88;2.90;;;18.00;99.90;;;;;;5077732;28;20108;-78
2022/06/16 06:17:43;;;;;;;5.38;1.92;;;19.70;99.90;;;;;;5093768;28;20050;-78
2022/06/16 06:20:09;;;;;;;5.00;2.35;;;19.90;99.90;;;;;;5106112;28;20031;-78
2022/06/16 06:22:35;;;;;;;5.57;2.30;;;20.20;99.90;;;;;;5097260;28;20058;-78
2022/06/16 06:25:01;;;;;;;3.90;2.20;;;20.40;99.90;;;;;;5095555;28;20039;-78
2022/06/16 06:27:45;;;;;;;4.43;2.00;;;20.50;99.90;;;;;;5084873;28;20495;-79
2022/06/16 06:30:23;;;;;;;5.40;2.35;;;20.70;99.90;;;;;;5079044;28;20145;-78
2022/06/16 06:32:49;;;;;;;5.25;2.03;;;20.90;99.90;;;;;;5095782;28;20042;-78
2022/06/16 06:35:16;;;;;;;4.60;2.03;;;21.10;99.90;;;;;;5099185;28;20046;-77
2022/06/16 06:37:42;;;;;;;4.57;2.38;;;21.20;99.90;;;;;;5114662;28;20081;-79
2022/06/16 06:40:12;;;;;;;4.10;1.88;;;21.30;99.90;;;;;;5081980;28;20419;-78
2022/06/16 06:42:38;;;;;;;4.82;1.95;;;21.20;99.90;;;;;;5086276;28;20039;-78
2022/06/16 06:45:04;;;;;;;4.93;1.65;;;21.10;99.90;;;;;;5095712;28;20514;-78
2022/06/16 06:47:30;;;;;;;;;;;21.20;99.90;;;;;;5095979;28;20440;-79
2022/06/16 06:49:57;;;;;;;4.47;1.63;;;21.30;99.90;;;;;;5095688;28;19919;-79
2022/06/16 06:52:23;;;;;;;2.97;1.73;;;21.50;99.90;;;;;;5078637;28;20119;-78
2022/06/16 06:54:49;;;;;;;4.15;1.85;;;21.50;99.90;;;;;;5095739;28;20056;-79
2022/06/16 06:57:23;;;;;;;3.83;1.90;;;21.50;99.90;;;;;;5094916;28;20073;-79
2022/06/16 06:59:49;;;;;;;3.22;1.45;;;21.80;99.90;;;;;;5095313;28;20043;-79
2022/06/16 07:02:16;;;;;;;5.13;1.35;;;21.90;99.90;;;;;;5095054;28;20038;-78
2022/06/16 07:04:42;;;;;;;5.15;1.15;;;22.00;99.90;;;;;;5093102;28;20479;-79
2022/06/16 07:07:14;;;;;;;4.20;1.23;;;22.10;99.90;;;;;;5095316;28;20038;-79
2022/06/16 07:09:40;;;;;;;4.10;0.98;;;22.10;99.90;;;;;;5095544;28;20451;-78
2022/06/16 07:12:13;;;;;;;;;;;22.10;99.90;;;;;;5096163;28;20028;-79
2022/06/16 07:14:47;;;;;;;4.57;1.55;;;22.20;99.90;;;;;;5095470;28;20357;-80
2022/06/16 07:17:15;;;;;;;3.03;1.00;;;22.30;99.90;;;;;;5096874;28;20051;-78
2022/06/16 07:19:40;;;;;;;4.03;1.02;;;22.30;99.90;;;;;;5082270;28;20502;-79
2022/06/16 07:22:07;;;;;;;;;;;22.40;99.90;;;;;;5095762;28;20036;-79
2022/06/16 07:24:34;;;;;;;4.32;1.30;;;22.60;99.90;;;;;;5094357;28;19926;-80
2022/06/16 07:27:01;;;;;;;5.78;1.17;;;22.50;99.90;;;;;;5099635;28;20039;-79
2022/06/16 07:29:27;;;;;;;3.30;1.30;;;22.60;99.90;;;;;;5094776;28;20047;-79
2022/06/16 07:31:53;;;;;;;3.72;0.93;;;22.60;99.90;;;;;;5094619;28;20069;-78
2022/06/16 07:34:18;;;;;;;;;;;22.80;99.90;;;;;;5101010;28;20035;-79
2022/06/16 07:36:44;;;;;;;3.13;1.02;;;23.00;99.90;;;;;;5100567;28;19956;-78
2022/06/16 07:39:10;;;;;;;;;;;22.90;99.90;;;;;;5087432;28;20067;-80
2022/06/16 07:41:36;;;;;;;3.25;0.60;;;22.80;99.90;;;;;;5099418;28;19923;-76
2022/06/16 07:44:06;;;;;;;;;;;22.70;99.90;;;;;;5105553;28;20036;-79
2022/06/16 07:46:32;;;;;;;2.05;0.70;;;22.90;99.90;;;;;;5094547;28;19916;-79
2022/06/16 07:48:58;;;;;;;1.88;0.63;;;23.00;99.90;;;;;;5097357;28;20035;-79
2022/06/16 07:51:24;;;;;;;;;;;23.20;99.90;;;;;;5073505;28;20084;-78
2022/06/16 07:53:50;;;;;;;2.28;0.68;;;23.20;99.10;;;;;;5079496;28;19959;-78
2022/06/16 07:56:16;;;;;;;;;;;23.20;99.90;;;;;;5095196;28;20039;-78
2022/06/16 07:58:43;;;;;;;2.80;0.63;;;23.40;99.50;;;;;;5093697;28;19920;-78
2022/06/16 08:01:10;;;;;;;4.22;1.00;;;23.40;99.40;;;;;;5077352;28;20035;-79
2022/06/16 08:03:36;;;;;;;2.25;0.63;;;23.60;98.40;;;;;;5093668;28;20061;-78
2022/06/16 08:06:07;;;;;;;2.38;0.77;;;23.90;99.10;;;;;;5077579;28;20044;-79
2022/06/16 08:08:33;;;;;;;3.90;0.60;;;24.00;98.30;;;;;;5093967;28;20032;-79
2022/06/16 08:10:59;;;;;;;1.50;0.60;;;24.10;98.80;;;;;;5112457;28;20506;-79
2022/06/16 08:13:26;;;;;;;3.90;0.80;;;24.50;98.80;;;;;;5094012;28;20043;-79
2022/06/16 08:15:52;;;;;;;2.00;0.70;;;24.30;98.30;;;;;;5094188;28;20467;-79
2022/06/16 08:18:21;;;;;;;3.05;0.95;;;24.30;97.40;;;;;;5093880;28;20089;-77
2022/06/16 08:20:47;;;;;;;3.97;0.80;;;24.20;97.30;;;;;;5094067;28;20043;-78
2022/06/16 08:23:13;;;;;;;2.25;0.90;;;24.60;97.80;;;;;;5077237;28;20376;-78
2022/06/16 08:25:42;;;;;;;3.13;0.90;;;24.50;97.00;;;;;;5089543;28;20056;-79
2022/06/16 08:28:09;;;;;;;2.10;0.70;;;24.30;96.10;;;;;;5090506;28;20399;-79
2022/06/16 08:30:37;;;;;;;3.42;0.80;;;24.20;96.50;;;;;;5072205;28;20051;-79
2022/06/16 08:33:03;;;;;;;2.55;0.80;;;24.50;97.40;;;;;;5090395;28;20039;-80
2022/06/16 08:35:29;;;;;;;2.47;0.75;;;24.40;96.20;;;;;;5089638;28;20557;-79
2022/06/16 08:37:55;;;;;;;2.20;0.98;;;24.70;96.20;;;;;;5072973;28;20483;-79
2022/06/16 08:40:21;;;;;;;3.05;0.90;;;25.00;97.00;;;;;;5056131;28;20032;-79
2022/06/16 08:43:03;;;;;;;1.40;0.70;;;25.10;96.20;;;;;;5090171;28;20072;-79
2022/06/16 08:45:32;;;;;;;2.00;0.95;;;25.00;95.20;;;;;;5072879;28;20080;-79
2022/06/16 08:48:19;;;;;;;4.72;0.82;;;25.00;95.40;;;;;;5089945;28;20348;-78
2022/06/16 08:51:18;;;;;;;3.33;1.00;;;25.00;94.70;;;;;;5090730;28;20028;-77
2022/06/16 08:53:50;;;;;;;3.47;1.13;;;25.40;95.20;;;;;;5072334;28;20105;-79
2022/06/16 08:56:44;;;;;;;3.28;0.90;;;25.60;94.50;;;;;;5090556;28;20473;-79
2022/06/16 08:59:17;;;;;;;2.97;1.05;;;25.70;95.20;;;;;;5089701;28;20040;-78
2022/06/16 09:01:56;;;;;;;2.50;0.90;;;26.00;95.10;;;;;;5090888;28;20064;-78
2022/06/16 09:04:54;;;;;;;2.10;1.20;;;26.10;94.70;;;;;;5091527;28;20040;-79
2022/06/16 09:07:32;;;;;;;3.28;1.40;;;26.20;94.80;;;;;;5089667;28;20036;-78
2022/06/16 09:10:33;;;;;;;3.92;1.30;;;26.40;95.20;;;;;;5089277;28;20167;-80
2022/06/16 09:13:35;;;;;;;4.40;1.27;;;26.70;95.10;;;;;;5064943;28;20067;-79
2022/06/16 09:16:22;;;;;;;2.95;1.27;;;26.70;95.70;;;;;;5090199;28;20392;-78
2022/06/16 09:18:56;;;;;;;3.55;1.73;;;27.10;95.20;;;;;;5088940;28;20046;-79
2022/06/16 09:21:42;;;;;;;3.00;1.10;;;27.30;94.60;;;;;;5089787;28;20472;-79
2022/06/16 09:24:29;;;;;;;4.10;1.48;;;26.90;94.10;;;;;;5091663;28;20118;-78
2022/06/16 09:27:49;;;;;;;3.33;1.13;;;26.50;94.10;;;;;;5092633;28;20052;-79
2022/06/16 09:30:21;;;;;;;2.97;1.25;;;26.40;94.50;;;;;;4992207;28;20047;-79
2022/06/16 09:33:02;;;;;;;2.67;1.02;;;26.30;94.60;;;;;;5081362;28;20115;-79
2022/06/16 09:35:37;;;;;;;2.83;1.45;;;26.40;94.70;;;;;;5075707;28;20603;-79
2022/06/16 09:38:21;;;;;;;2.42;1.30;;;26.60;94.70;;;;;;5075988;28;20040;-79
2022/06/16 09:42:32;;;;;;;3.95;1.77;;;26.90;94.20;;;;;;5093663;28;20582;-79
2022/06/16 09:43:56;;;;;;;3.10;1.20;;;26.90;93.80;;;;;;5096947;28;20071;-79
2022/06/16 09:46:33;;;;;;;3.50;1.60;;;27.00;93.80;;;;;;5096883;28;20046;-79
2022/06/16 09:49:04;;;;;;;3.80;1.70;;;27.20;93.60;;;;;;5094607;28;20039;-79
2022/06/16 09:51:52;;;;;;;2.70;1.65;;;27.20;92.80;;;;;;5096517;28;20047;-79
2022/06/16 09:54:24;;;;;;;5.38;1.75;;;27.40;93.50;;;;;;5080071;28;20085;-80
2022/06/16 09:57:00;;;;;;;3.67;1.70;;;27.50;92.70;;;;;;5096549;28;20070;-79
2022/06/16 09:59:25;;;;;;;;;;;27.50;93.00;;;;;;5097406;28;20043;-80
2022/06/16 10:01:57;;;;;;;4.63;1.77;;;27.50;92.90;;;;;;5096272;28;19923;-78
2022/06/16 10:04:23;;;;;;;4.22;1.90;;;27.50;92.40;;;;;;5096768;28;20387;-80
2022/06/16 10:07:19;;;;;;;4.70;2.22;;;27.60;92.20;;;;;;5096014;28;20427;-79
2022/06/16 10:09:54;;;;;;;3.08;1.90;;;27.30;92.40;;;;;;5095932;28;20028;-78
2022/06/16 10:12:45;;;;;;;4.35;2.08;;;27.50;92.60;;;;;;5096459;28;20036;-79
2022/06/16 10:15:35;;;;;;;4.93;1.80;;;27.50;92.50;;;;;;5079936;28;20114;-78
2022/06/16 10:18:00;;;;;;;4.25;2.20;;;27.30;92.20;;;;;;5079219;28;20051;-80
2022/06/16 10:20:28;;;;;;;3.97;2.20;;;27.60;92.70;;;;;;5096251;28;20073;-79
2022/06/16 10:23:16;;;;;;;4.93;2.30;;;28.10;93.00;;;;;;5096178;28;20095;-79
2022/06/16 10:25:47;;;;;;;5.95;2.05;;;28.30;92.70;;;;;;5092712;28;20063;-79
2022/06/16 10:28:38;;;;;;;2.90;2.30;;;28.30;92.40;;;;;;5079081;28;20403;-78
2022/06/16 10:31:06;;;;;;;4.57;2.30;;;28.70;92.40;;;;;;5095347;28;20043;-79
2022/06/16 10:33:39;;;;;;;3.03;1.90;;;28.60;92.20;;;;;;5094871;28;20040;-79
2022/06/16 10:36:16;;;;;;;3.83;2.03;;;28.50;92.20;;;;;;5095388;28;20036;-78
2022/06/16 10:39:04;;;;;;;4.05;2.13;;;28.50;92.10;;;;;;5078186;28;20079;-79
2022/06/16 10:41:33;;;;;;;2.38;1.63;;;28.60;91.60;;;;;;5095839;28;20100;-79
2022/06/16 10:44:02;;;;;;;4.75;2.28;;;28.80;92.00;;;;;;5095674;28;20035;-79
2022/06/16 10:46:35;;;;;;;3.38;2.10;;;28.80;91.30;;;;;;5096115;28;20039;-79
2022/06/16 10:49:06;;;;;;;3.63;2.05;;;29.10;91.20;;;;;;5078960;28;20032;-79
2022/06/16 10:51:35;;;;;;;3.53;1.92;;;28.90;91.00;;;;;;5095533;28;20070;-78
2022/06/16 10:54:19;;;;;;;5.43;1.83;;;29.10;90.80;;;;;;5094976;28;20034;-78
2022/06/16 10:56:46;;;;;;;3.03;2.03;;;29.30;90.70;;;;;;5092912;28;20086;-80
2022/06/16 10:59:15;;;;;;;3.20;2.10;;;28.60;90.40;;;;;;5095962;28;20494;-78
2022/06/16 11:02:03;;;;;;;5.07;2.33;;;28.70;90.50;;;;;;5095286;28;20107;-79
2022/06/16 11:04:39;;;;;;;3.38;2.00;;;29.10;90.40;;;;;;5094175;28;20487;-79
2022/06/16 11:07:09;;;;;;;4.13;1.75;;;29.00;90.20;;;;;;5078879;28;20040;-79
2022/06/16 11:09:35;;;;;;;3.80;1.92;;;29.40;90.70;;;;;;5095138;28;20043;-79
2022/06/16 11:12:05;;;;;;;4.32;1.90;;;29.80;90.10;;;;;;5078299;28;20093;-79
2022/06/16 11:14:47;;;;;;;5.45;1.90;;;29.70;90.00;;;;;;5095100;28;20050;-79
2022/06/16 11:17:23;;;;;;;4.35;1.60;;;29.80;90.10;;;;;;5095110;28;20039;-79
2022/06/16 11:19:59;;;;;;;3.00;1.75;;;30.00;90.10;;;;;;5094769;28;20067;-79
2022/06/16 11:22:32;;;;;;;5.00;1.83;;;29.80;90.10;;;;;;5097101;28;20039;-79
2022/06/16 11:25:05;;;;;;;4.00;1.88;;;29.60;89.00;;;;;;5098203;28;20044;-79
2022/06/16 11:27:40;;;;;;;7.28;1.90;;;29.70;88.50;;;;;;5078118;28;20040;-79
2022/06/16 11:30:53;;;;;;;5.38;1.77;;;29.60;90.10;;;;;;5095328;28;20074;-79
2022/06/16 11:36:46;;;;;;;3.28;2.00;;;29.80;90.20;;;;;;5094934;28;20043;-79
2022/06/16 11:39:49;;;;;;;2.63;1.60;;;30.10;90.60;;;;;;5094996;28;20073;-80
2022/06/16 11:42:47;;;;;;;5.15;2.00;;;30.50;88.90;;;;;;5095364;28;20051;-79
2022/06/16 11:45:47;;;;;;;3.13;2.08;;;30.30;89.20;;;;;;5092598;28;20048;-77
2022/06/16 11:48:26;;;;;;;3.15;1.90;;;30.60;90.30;;;;;;5075172;28;20051;-78
2022/06/16 11:50:52;;;;;;;3.45;1.75;;;30.50;89.80;;;;;;5093985;28;20040;-78
2022/06/16 11:53:42;;;;;;;4.95;2.00;;;30.10;89.10;;;;;;5077918;28;20028;-78
2022/06/16 11:56:23;;;;;;;4.68;1.95;;;30.40;90.30;;;;;;5094527;28;20126;-78
2022/06/16 11:58:57;;;;;;;6.90;2.00;;;30.20;88.90;;;;;;5076446;28;20050;-77
2022/06/16 12:01:35;;;;;;;3.88;1.70;;;30.40;89.50;;;;;;5094654;28;20122;-77
2022/06/16 12:04:34;;;;;;;2.60;1.40;;;30.40;88.80;;;;;;5093167;28;20082;-77
2022/06/16 12:07:05;;;;;;;3.97;1.65;;;30.40;86.80;;;;;;5093784;28;20036;-78
2022/06/16 12:09:49;;;;;;;3.20;1.77;;;30.60;88.00;;;;;;5098966;28;20123;-79
2022/06/16 12:12:36;;;;;;;3.17;1.70;;;30.40;87.20;;;;;;5077393;28;20035;-78
2022/06/16 12:15:40;;;;;;;2.63;1.55;;;30.50;87.30;;;;;;5093753;28;20028;-78
2022/06/16 12:18:35;;;;;;;4.03;1.55;;;30.90;88.10;;;;;;5067945;28;20479;-78
2022/06/16 12:21:07;;;;;;;4.70;2.00;;;30.70;86.80;;;;;;5093434;28;20040;-77
2022/06/16 12:24:18;;;;;;;4.25;1.65;;;30.20;85.60;;;;;;5093984;28;20059;-77
2022/06/16 12:27:00;;;;;;;4.10;1.58;;;30.40;87.40;;;;;;5008980;28;20042;-77
2022/06/16 12:29:58;;;;;;;3.38;1.90;;;30.20;86.60;;;;;;4977080;28;20097;-77
2022/06/16 12:32:35;;;;;;;6.97;2.03;;;30.40;86.80;;;;;;5078119;28;20085;-78
2022/06/16 12:35:14;;;;;;;5.25;1.70;;;30.60;86.60;;;;;;5093342;28;20069;-79
2022/06/16 12:37:47;;;;;;;8.23;1.80;;;30.20;85.60;;;;;;5076287;28;20043;-78
2022/06/16 12:40:22;;;;;;;3.10;1.30;;;30.30;86.90;;;;;;5093428;28;20051;-77
2022/06/16 12:43:01;;;;;;;2.22;1.27;;;30.50;85.60;;;;;;5093280;28;20506;-79
2022/06/16 12:45:36;;;;;;;3.53;1.70;;;30.80;84.80;;;;;;5093604;28;20100;-78
2022/06/16 12:48:07;;;;;;;3.50;1.65;;;30.50;85.00;;;;;;5091300;28;20035;-79
2022/06/16 12:50:40;;;;;;;3.88;1.45;;;30.50;85.40;;;;;;5076825;28;20036;-79
2022/06/16 12:53:17;;;;;;;3.40;2.38;;;30.30;85.60;;;;;;5093486;28;20127;-79
2022/06/16 12:55:44;;;;;;;4.28;2.10;;;30.00;87.20;;;;;;5093143;28;20388;-79
2022/06/16 12:58:33;;;;;;;3.53;1.98;;;30.10;86.70;;;;;;5076364;28;20067;-79
2022/06/16 13:01:03;;;;;;;4.40;1.90;;;30.30;87.90;;;;;;5075806;28;20114;-78
2022/06/16 13:03:55;;;;;;;3.78;1.70;;;30.30;87.50;;;;;;5093156;28;20058;-78
2022/06/16 13:06:23;;;;;;;4.40;1.63;;;30.10;85.90;;;;;;5092353;28;20032;-79
2022/06/16 13:08:56;;;;;;;6.35;2.10;;;30.00;85.80;;;;;;5075851;28;20043;-78
2022/06/16 13:11:30;;;;;;;3.85;2.00;;;30.00;85.60;;;;;;5093240;28;20510;-78
2022/06/16 13:14:10;;;;;;;3.63;1.52;;;29.70;85.50;;;;;;5092780;28;20468;-78
2022/06/16 13:16:40;;;;;;;3.33;1.70;;;29.80;86.80;;;;;;5092947;28;20107;-79
2022/06/16 13:19:22;;;;;;;3.72;1.73;;;29.60;86.20;;;;;;5076300;28;20039;-78
2022/06/16 13:22:02;;;;;;;6.13;1.80;;;29.80;84.60;;;;;;5092947;28;20036;-77
2022/06/16 13:24:42;;;;;;;3.00;1.60;;;30.00;87.40;;;;;;5092848;28;20433;-77
2022/06/16 13:27:30;;;;;;;2.80;1.65;;;29.90;88.90;;;;;;5092584;28;20434;-79
2022/06/16 13:30:05;;;;;;;3.38;1.55;;;29.90;86.40;;;;;;5075225;28;20124;-78
2022/06/16 13:32:41;;;;;;;5.25;1.70;;;30.10;85.40;;;;;;5092065;28;20040;-78
2022/06/16 13:35:13;;;;;;;2.53;1.77;;;29.80;87.20;;;;;;5091634;28;20039;-79
2022/06/16 13:37:41;;;;;;;3.13;1.40;;;29.90;87.80;;;;;;5095869;28;20039;-77
2022/06/16 13:40:07;;;;;;;3.80;1.80;;;30.10;87.40;;;;;;5091595;28;20032;-78